Time;durP1;ratioP1;P1;durP2;ratioP2;P2;SDS_P1;SDS_P2;PMS_P1;PMS_P2;Temp;Humidity;BMP_temperature;BMP_pressure;BME280_temperature;BME280_humidity;BME280_pressure;Samples;Min_cycle;Max_cycle;Signal;HPM_P1;HPM_P2
2021/09/29 00:00:32;;;;;;;1.30;1.17;;;12.80;73.40;;;;;;4853557;29;20120;-84
2021/09/29 00:02:58;;;;;;;1.02;0.90;;;12.80;73.90;;;;;;4854424;29;20057;-79
2021/09/29 00:05:26;;;;;;;1.00;0.88;;;12.80;73.50;;;;;;4854291;29;20026;-78
2021/09/29 00:07:52;;;;;;;1.55;1.00;;;12.70;73.30;;;;;;4854021;29;20044;-83
2021/09/29 00:10:18;;;;;;;0.98;0.77;;;12.70;73.30;;;;;;4853372;29;20046;-84
2021/09/29 00:12:44;;;;;;;2.35;1.00;;;12.70;73.30;;;;;;4850593;29;20410;-84
2021/09/29 00:15:14;;;;;;;1.77;1.17;;;12.60;73.20;;;;;;4836564;29;20409;-80
2021/09/29 00:17:41;;;;;;;1.75;1.20;;;12.60;73.20;;;;;;4834080;29;20038;-81
2021/09/29 00:20:09;;;;;;;1.40;1.02;;;12.50;73.00;;;;;;4853171;29;20525;-79
2021/09/29 00:22:35;;;;;;;1.48;0.93;;;12.50;73.10;;;;;;4856218;29;20495;-79
2021/09/29 00:25:02;;;;;;;2.58;1.27;;;12.50;73.10;;;;;;4858745;29;20037;-86
2021/09/29 00:27:28;;;;;;;1.50;1.02;;;12.50;73.10;;;;;;4858312;29;20093;-85
2021/09/29 00:29:58;;;;;;;2.25;1.45;;;12.40;73.00;;;;;;4858064;29;20034;-83
2021/09/29 00:32:24;;;;;;;1.70;0.77;;;12.40;73.00;;;;;;4857987;29;20489;-86
2021/09/29 00:34:50;;;;;;;0.98;0.80;;;12.40;73.10;;;;;;4857328;29;20041;-82
2021/09/29 00:37:16;;;;;;;1.45;0.90;;;12.30;72.90;;;;;;4857473;29;20072;-79
2021/09/29 00:39:42;;;;;;;1.98;0.80;;;12.30;72.90;;;;;;4856662;29;20132;-80
2021/09/29 00:42:08;;;;;;;1.35;0.80;;;12.30;73.00;;;;;;4857442;29;20037;-79
2021/09/29 00:44:34;;;;;;;2.40;0.60;;;12.30;73.00;;;;;;4856959;29;20033;-80
2021/09/29 00:47:01;;;;;;;1.35;1.25;;;12.20;72.80;;;;;;4856178;29;20565;-80
2021/09/29 00:49:27;;;;;;;1.10;0.90;;;12.20;72.80;;;;;;4857456;29;20030;-79
2021/09/29 00:51:56;;;;;;;0.88;0.68;;;12.20;72.90;;;;;;4856915;29;20501;-79
2021/09/29 00:54:28;;;;;;;1.48;0.60;;;12.20;72.90;;;;;;4856936;29;20038;-78
2021/09/29 00:56:54;;;;;;;2.15;0.70;;;12.10;72.70;;;;;;4856039;29;20146;-79
2021/09/29 00:59:21;;;;;;;0.77;0.77;;;12.10;72.70;;;;;;4856530;29;20033;-79
2021/09/29 01:01:47;;;;;;;1.30;0.88;;;12.00;72.50;;;;;;4840732;29;20033;-79
2021/09/29 01:04:14;;;;;;;0.70;0.70;;;12.00;72.50;;;;;;4856708;29;20076;-80
2021/09/29 01:07:31;;;;;;;1.42;0.60;;;12.00;72.60;;;;;;4856875;29;20121;-80
2021/09/29 01:10:13;;;;;;;1.50;0.77;;;11.90;72.40;;;;;;4872336;29;20120;-79
2021/09/29 01:13:04;;;;;;;1.55;0.50;;;11.90;72.40;;;;;;4866533;29;20049;-80
2021/09/29 01:15:34;;;;;;;0.60;0.50;;;11.90;72.40;;;;;;4861273;29;20409;-82
2021/09/29 01:18:08;;;;;;;0.73;0.68;;;11.90;72.40;;;;;;4857106;29;20040;-80
2021/09/29 01:20:46;;;;;;;2.45;0.70;;;11.80;72.30;;;;;;4857054;29;20060;-83
2021/09/29 01:23:49;;;;;;;0.95;0.50;;;11.80;72.30;;;;;;4857259;29;20488;-80
2021/09/29 01:26:18;;;;;;;1.85;0.43;;;11.70;72.20;;;;;;4857318;29;20076;-83
2021/09/29 01:28:46;;;;;;;1.38;0.73;;;11.70;72.20;;;;;;4855880;29;20025;-79
2021/09/29 01:31:13;;;;;;;3.08;0.80;;;11.70;72.30;;;;;;4854935;29;20497;-83
2021/09/29 01:33:41;;;;;;;1.58;0.70;;;11.70;72.40;;;;;;4855094;29;20045;-82
2021/09/29 01:36:08;;;;;;;0.85;0.63;;;11.60;72.30;;;;;;4857981;29;20037;-81
2021/09/29 01:38:35;;;;;;;0.82;0.68;;;11.60;72.30;;;;;;4856520;29;20037;-81
2021/09/29 01:41:01;;;;;;;2.00;0.60;;;11.60;72.40;;;;;;4857947;29;20052;-83
2021/09/29 01:43:29;;;;;;;2.30;1.08;;;11.60;72.50;;;;;;4858187;29;20423;-83
2021/09/29 01:45:56;;;;;;;1.25;1.05;;;11.60;72.50;;;;;;4858695;29;20109;-81
2021/09/29 01:48:22;;;;;;;1.80;0.60;;;11.60;72.50;;;;;;4861027;29;20141;-82
2021/09/29 01:50:53;;;;;;;1.88;0.82;;;11.60;72.60;;;;;;4860558;29;20541;-80
2021/09/29 01:53:22;;;;;;;1.20;0.60;;;11.60;72.60;;;;;;4860567;29;20041;-81
2021/09/29 01:55:49;;;;;;;1.83;0.50;;;11.60;72.60;;;;;;4861006;29;20086;-82
2021/09/29 01:58:17;;;;;;;2.13;0.70;;;11.60;72.60;;;;;;4860965;29;20041;-83
2021/09/29 02:00:43;;;;;;;1.10;0.70;;;11.60;72.70;;;;;;4861050;29;20506;-82
2021/09/29 02:03:10;;;;;;;1.50;0.50;;;11.60;72.70;;;;;;4861308;29;20239;-82
2021/09/29 02:05:37;;;;;;;1.55;0.63;;;11.60;72.70;;;;;;4861018;29;20077;-80
2021/09/29 02:08:08;;;;;;;1.58;0.55;;;11.50;72.50;;;;;;4860131;29;20029;-81
2021/09/29 02:10:35;;;;;;;2.90;0.65;;;11.50;72.50;;;;;;4860363;29;20511;-84
2021/09/29 02:13:01;;;;;;;1.23;0.70;;;11.50;72.50;;;;;;4841392;29;20099;-82
2021/09/29 02:15:27;;;;;;;0.77;0.45;;;11.50;72.50;;;;;;4842452;29;20040;-80
2021/09/29 02:17:53;;;;;;;4.20;0.85;;;11.50;72.60;;;;;;4842338;29;20034;-80
2021/09/29 02:20:20;;;;;;;1.00;0.60;;;11.50;72.60;;;;;;4856100;29;20030;-79
2021/09/29 02:22:46;;;;;;;1.38;0.82;;;11.50;72.60;;;;;;4841828;29;20036;-82
2021/09/29 02:25:12;;;;;;;2.90;0.75;;;11.50;72.60;;;;;;4856387;29;20034;-82
2021/09/29 02:27:39;;;;;;;1.40;0.80;;;11.50;72.60;;;;;;4842573;29;20041;-82
2021/09/29 02:30:07;;;;;;;3.58;0.90;;;11.50;72.60;;;;;;4856974;29;20034;-87
2021/09/29 02:32:34;;;;;;;0.57;0.50;;;11.40;72.40;;;;;;4841715;29;20073;-87
2021/09/29 02:35:00;;;;;;;0.68;0.60;;;11.40;72.40;;;;;;4856466;29;20030;-85
2021/09/29 02:37:26;;;;;;;0.90;0.55;;;11.40;72.40;;;;;;4841914;29;20045;-80
2021/09/29 02:39:52;;;;;;;3.55;0.90;;;11.50;72.60;;;;;;4856109;29;20409;-81
2021/09/29 02:42:19;;;;;;;2.13;0.75;;;11.40;72.40;;;;;;4829897;29;20043;-81
2021/09/29 02:44:45;;;;;;;1.52;0.50;;;11.40;72.40;;;;;;4860382;29;20037;-83
2021/09/29 02:47:11;;;;;;;2.10;0.65;;;11.40;72.40;;;;;;4858813;29;20496;-84
2021/09/29 02:49:37;;;;;;;3.80;0.65;;;11.40;72.40;;;;;;4860448;29;20493;-85
2021/09/29 02:52:03;;;;;;;3.58;0.95;;;11.40;72.40;;;;;;4859831;29;20053;-85
2021/09/29 02:54:29;;;;;;;2.45;1.67;;;11.40;72.40;;;;;;4860650;29;20030;-83
2021/09/29 02:56:55;;;;;;;1.42;0.60;;;11.40;72.40;;;;;;4873965;29;20033;-80
2021/09/29 02:59:21;;;;;;;1.10;0.47;;;11.40;72.40;;;;;;4859812;29;20033;-86
2021/09/29 03:01:47;;;;;;;1.98;0.60;;;11.40;72.40;;;;;;4858578;29;20041;-86
2021/09/29 03:04:13;;;;;;;1.38;0.77;;;11.30;72.20;;;;;;4858027;29;20256;-85
2021/09/29 03:06:39;;;;;;;1.35;1.00;;;11.30;72.20;;;;;;4858740;29;20418;-84
2021/09/29 03:09:05;;;;;;;2.92;0.80;;;11.30;72.20;;;;;;4858313;29;20209;-86
2021/09/29 03:11:31;;;;;;;2.97;0.82;;;11.30;72.20;;;;;;4859266;29;20105;-85
2021/09/29 03:13:57;;;;;;;1.30;0.70;;;11.30;72.20;;;;;;4859513;29;20128;-81
2021/09/29 03:16:23;;;;;;;2.40;0.82;;;11.30;72.20;;;;;;4859759;29;20462;-84
2021/09/29 03:18:49;;;;;;;0.50;0.50;;;11.30;72.20;;;;;;4860004;29;20541;-81
2021/09/29 03:21:16;;;;;;;1.27;0.60;;;11.30;72.20;;;;;;4859525;29;20033;-86
2021/09/29 03:23:43;;;;;;;1.50;0.65;;;11.30;72.20;;;;;;4859241;29;20104;-81
2021/09/29 03:26:09;;;;;;;2.83;0.63;;;11.30;72.20;;;;;;4859194;29;20056;-83
2021/09/29 03:28:35;;;;;;;2.17;0.80;;;11.30;72.20;;;;;;4859221;29;20037;-80
2021/09/29 03:31:01;;;;;;;2.83;0.43;;;11.30;72.20;;;;;;4859254;29;20037;-85
2021/09/29 03:33:27;;;;;;;2.42;0.80;;;11.30;72.20;;;;;;4859154;29;20089;-83
2021/09/29 03:35:53;;;;;;;1.88;0.60;;;11.30;72.20;;;;;;4859755;29;20068;-85
2021/09/29 03:38:19;;;;;;;0.95;0.60;;;11.30;72.10;;;;;;4858975;29;20029;-83
2021/09/29 03:40:45;;;;;;;0.90;0.40;;;11.30;72.10;;;;;;4859147;29;20508;-84
2021/09/29 03:43:11;;;;;;;1.95;0.60;;;11.20;72.00;;;;;;4859144;29;20378;-84
2021/09/29 03:45:37;;;;;;;0.47;0.43;;;11.20;72.00;;;;;;4858059;29;20411;-79
2021/09/29 03:48:03;;;;;;;2.67;0.77;;;11.20;72.00;;;;;;4858824;29;20053;-88
2021/09/29 03:50:30;;;;;;;2.17;0.65;;;11.20;72.00;;;;;;4859163;29;20099;-84
2021/09/29 03:52:56;;;;;;;2.45;0.60;;;11.20;72.00;;;;;;4858098;29;20042;-84
2021/09/29 03:55:22;;;;;;;1.30;0.57;;;11.20;72.00;;;;;;4858152;29;20052;-82
2021/09/29 03:57:49;;;;;;;1.73;0.52;;;11.10;71.80;;;;;;4859106;29;20034;-84
2021/09/29 04:00:16;;;;;;;0.82;0.43;;;11.10;71.80;;;;;;4859274;29;20036;-85
2021/09/29 04:02:42;;;;;;;2.10;0.70;;;11.10;71.80;;;;;;4858784;29;20532;-82
2021/09/29 04:05:09;;;;;;;1.10;0.50;;;11.10;71.80;;;;;;4857273;29;20163;-80
2021/09/29 04:07:35;;;;;;;1.15;0.82;;;11.10;71.80;;;;;;4857954;29;20044;-86
2021/09/29 04:10:02;;;;;;;0.93;0.65;;;11.10;71.80;;;;;;4859445;29;20037;-87
2021/09/29 04:12:28;;;;;;;1.45;0.82;;;11.10;71.90;;;;;;4857789;29;20397;-87
2021/09/29 04:14:54;;;;;;;3.50;0.70;;;11.10;71.90;;;;;;4857818;29;20057;-86
2021/09/29 04:17:20;;;;;;;2.67;0.60;;;11.10;71.80;;;;;;4859262;29;20038;-85
2021/09/29 04:19:46;;;;;;;3.55;0.82;;;11.10;71.80;;;;;;4858568;29;20025;-81
2021/09/29 04:22:12;;;;;;;4.15;1.23;;;11.10;71.80;;;;;;4858663;29;20033;-81
2021/09/29 04:24:39;;;;;;;2.75;0.60;;;11.00;71.70;;;;;;4858986;29;20120;-82
2021/09/29 04:27:07;;;;;;;2.00;0.50;;;11.00;71.60;;;;;;4859096;29;20029;-84
2021/09/29 04:29:33;;;;;;;1.85;0.57;;;11.00;71.60;;;;;;4858992;29;20077;-84
2021/09/29 04:31:59;;;;;;;2.25;0.93;;;11.00;71.60;;;;;;4857981;29;20057;-85
2021/09/29 04:34:25;;;;;;;1.33;0.63;;;10.90;71.40;;;;;;4858580;29;20040;-85
2021/09/29 04:36:52;;;;;;;1.65;0.73;;;10.90;71.40;;;;;;4858271;29;20549;-79
2021/09/29 04:39:17;;;;;;;1.75;0.50;;;10.90;71.40;;;;;;4858862;29;20441;-83
2021/09/29 04:41:44;;;;;;;1.92;0.60;;;10.90;71.40;;;;;;4858638;29;20063;-82
2021/09/29 04:44:10;;;;;;;3.03;0.40;;;10.80;71.30;;;;;;4858653;29;20521;-84
2021/09/29 04:46:36;;;;;;;3.08;1.67;;;10.80;71.30;;;;;;4858980;29;20041;-85
2021/09/29 04:49:02;;;;;;;1.88;0.52;;;10.80;71.30;;;;;;4853788;29;20595;-83
2021/09/29 04:51:28;;;;;;;1.17;0.57;;;10.80;71.30;;;;;;4855543;29;20498;-86
2021/09/29 04:53:54;;;;;;;1.95;0.52;;;10.70;71.10;;;;;;4854992;29;20409;-83
2021/09/29 04:56:20;;;;;;;1.17;0.57;;;10.70;71.10;;;;;;4855141;29;20168;-82
2021/09/29 04:58:47;;;;;;;0.88;0.50;;;10.70;71.10;;;;;;4842065;29;20033;-86
2021/09/29 05:01:20;;;;;;;1.52;0.70;;;10.70;71.10;;;;;;4837500;29;20113;-84
2021/09/29 05:03:46;;;;;;;0.93;0.50;;;10.60;71.00;;;;;;4846291;29;20025;-82
2021/09/29 05:06:12;;;;;;;0.93;0.50;;;10.60;70.90;;;;;;4869037;29;20402;-84
2021/09/29 05:08:39;;;;;;;0.82;0.50;;;10.60;71.00;;;;;;4843553;29;20064;-87
2021/09/29 05:11:28;;;;;;;1.80;0.77;;;10.60;71.00;;;;;;4839132;29;20034;-79
2021/09/29 05:13:56;;;;;;;1.02;0.47;;;10.60;71.00;;;;;;4853666;29;20034;-86
2021/09/29 05:16:22;;;;;;;3.95;0.70;;;10.50;70.80;;;;;;4857320;29;20061;-86
2021/09/29 05:18:48;;;;;;;0.98;0.70;;;10.50;70.80;;;;;;4856049;29;20064;-91
2021/09/29 05:21:14;;;;;;;3.53;0.60;;;10.50;70.90;;;;;;4858038;29;20058;-89
2021/09/29 05:23:40;;;;;;;1.35;0.70;;;10.50;70.90;;;;;;4857609;29;20042;-89
2021/09/29 05:26:06;;;;;;;2.38;0.63;;;10.50;70.90;;;;;;4860204;29;20409;-83
2021/09/29 05:28:36;;;;;;;1.08;0.52;;;10.40;70.70;;;;;;4855769;29;20050;-83
2021/09/29 05:31:03;;;;;;;1.73;0.47;;;10.50;70.90;;;;;;4860922;29;20064;-79
2021/09/29 05:33:29;;;;;;;1.40;0.50;;;10.40;70.70;;;;;;4857889;29;20037;-83
2021/09/29 05:35:55;;;;;;;1.88;0.80;;;10.40;70.70;;;;;;4856793;29;20033;-85
2021/09/29 05:38:21;;;;;;;0.65;0.55;;;10.30;70.50;;;;;;4850767;29;20044;-92
2021/09/29 05:40:47;;;;;;;0.60;0.52;;;10.30;70.50;;;;;;4840423;29;20542;-81
2021/09/29 05:43:13;;;;;;;1.00;0.70;;;10.30;70.50;;;;;;4840975;29;20038;-82
2021/09/29 05:45:39;;;;;;;1.52;0.60;;;10.30;70.50;;;;;;4823163;29;20097;-78
2021/09/29 05:48:06;;;;;;;1.85;1.10;;;10.30;70.50;;;;;;4846864;29;20045;-87
2021/09/29 05:50:35;;;;;;;3.05;1.85;;;10.20;70.40;;;;;;4857812;29;20848;-87
2021/09/29 05:53:01;;;;;;;4.07;1.48;;;10.20;70.60;;;;;;4857058;29;20421;-86
2021/09/29 05:55:27;;;;;;;6.93;1.40;;;10.30;71.20;;;;;;4858099;29;20073;-82
2021/09/29 05:57:53;;;;;;;3.53;1.30;;;10.30;71.40;;;;;;4851228;29;20065;-82
2021/09/29 06:00:22;;;;;;;3.30;1.10;;;10.30;71.50;;;;;;4852783;29;20097;-83
2021/09/29 06:02:48;;;;;;;4.32;2.15;;;10.30;71.50;;;;;;4856205;29;20054;-84
2021/09/29 06:05:14;;;;;;;3.67;1.48;;;10.30;71.60;;;;;;4836118;29;20056;-80
2021/09/29 06:07:40;;;;;;;3.50;1.13;;;10.40;71.80;;;;;;4837766;29;20026;-81
2021/09/29 06:10:06;;;;;;;2.70;1.10;;;10.30;71.70;;;;;;4836380;29;20545;-84
2021/09/29 06:12:32;;;;;;;2.55;1.00;;;10.30;71.70;;;;;;4838208;29;20109;-86
2021/09/29 06:14:58;;;;;;;3.90;1.05;;;10.30;71.70;;;;;;4840252;29;20581;-78
2021/09/29 06:17:27;;;;;;;4.20;1.10;;;10.40;71.90;;;;;;4838928;29;20121;-87
2021/09/29 06:19:54;;;;;;;1.55;0.88;;;10.30;71.70;;;;;;4836009;29;20030;-84
2021/09/29 06:22:21;;;;;;;3.38;1.33;;;10.30;71.80;;;;;;4833821;29;20429;-82
2021/09/29 06:24:48;;;;;;;3.25;1.00;;;10.40;71.90;;;;;;4848808;29;20036;-83
2021/09/29 06:27:14;;;;;;;1.27;1.00;;;10.30;71.70;;;;;;4840542;29;20026;-84
2021/09/29 06:29:42;;;;;;;4.47;1.00;;;10.30;71.70;;;;;;4855862;29;20298;-84
2021/09/29 06:32:08;;;;;;;5.57;1.58;;;10.30;71.70;;;;;;4856275;29;20503;-88
2021/09/29 06:34:34;;;;;;;3.15;0.98;;;10.30;71.80;;;;;;4856761;29;20064;-84
2021/09/29 06:37:00;;;;;;;2.33;0.70;;;10.30;71.70;;;;;;4856821;29;20044;-81
2021/09/29 06:39:26;;;;;;;2.45;0.90;;;10.30;71.70;;;;;;4856492;29;20026;-81
2021/09/29 06:41:52;;;;;;;2.33;0.85;;;10.40;71.90;;;;;;4855816;29;20033;-78
2021/09/29 06:44:18;;;;;;;2.70;0.60;;;10.40;71.90;;;;;;4855467;29;20400;-78
2021/09/29 06:46:44;;;;;;;1.83;1.00;;;10.40;71.90;;;;;;4855231;29;20113;-77
2021/09/29 06:49:10;;;;;;;2.25;0.85;;;10.40;71.80;;;;;;4855025;29;20037;-78
2021/09/29 06:51:36;;;;;;;2.13;0.77;;;10.40;71.80;;;;;;4855359;29;20041;-80
2021/09/29 06:54:03;;;;;;;4.03;1.08;;;10.40;71.80;;;;;;4854559;29;20062;-78
2021/09/29 06:56:29;;;;;;;3.67;0.75;;;10.40;71.70;;;;;;4854364;29;20033;-78
2021/09/29 06:58:55;;;;;;;3.15;1.40;;;10.50;71.90;;;;;;4854986;29;20363;-82
2021/09/29 07:01:21;;;;;;;2.33;0.60;;;10.50;71.90;;;;;;4834511;29;20049;-79
2021/09/29 07:03:48;;;;;;;2.20;0.80;;;10.50;71.80;;;;;;4849528;29;20072;-81
2021/09/29 07:06:15;;;;;;;2.28;1.00;;;10.60;72.00;;;;;;4854243;29;20041;-79
2021/09/29 07:08:40;;;;;;;2.67;0.70;;;10.60;71.90;;;;;;4843797;29;20030;-79
2021/09/29 07:11:07;;;;;;;2.50;1.05;;;10.60;71.90;;;;;;4836641;29;20481;-79
2021/09/29 07:13:33;;;;;;;2.22;1.35;;;10.60;71.80;;;;;;4849831;29;20387;-80
2021/09/29 07:16:01;;;;;;;1.85;0.50;;;10.70;71.90;;;;;;4853589;29;20270;-78
2021/09/29 07:18:30;;;;;;;1.27;0.60;;;10.60;71.80;;;;;;4854781;29;20034;-79
2021/09/29 07:20:57;;;;;;;4.45;0.60;;;10.70;71.90;;;;;;4853521;29;20033;-80
2021/09/29 07:23:23;;;;;;;1.98;0.50;;;10.70;71.90;;;;;;4854235;29;20044;-79
2021/09/29 07:25:49;;;;;;;6.13;0.73;;;10.70;71.80;;;;;;4854915;29;20048;-78
2021/09/29 07:28:16;;;;;;;1.45;0.80;;;10.70;71.80;;;;;;4837809;29;20461;-79
2021/09/29 07:30:45;;;;;;;1.00;0.63;;;10.80;71.90;;;;;;4854458;29;20068;-79
2021/09/29 07:33:13;;;;;;;1.88;0.60;;;10.80;71.80;;;;;;4853770;29;20045;-79
2021/09/29 07:35:41;;;;;;;4.32;0.80;;;10.80;71.80;;;;;;4853622;29;20041;-79
2021/09/29 07:38:07;;;;;;;1.95;0.60;;;10.90;71.90;;;;;;4846890;29;20038;-85
2021/09/29 07:40:34;;;;;;;1.67;0.73;;;10.90;71.90;;;;;;4836326;29;20038;-81
2021/09/29 07:43:01;;;;;;;4.15;0.70;;;10.90;71.90;;;;;;4825399;29;20652;-81
2021/09/29 07:45:27;;;;;;;2.20;0.73;;;11.00;72.00;;;;;;4836597;29;20065;-83
2021/09/29 07:47:54;;;;;;;2.00;0.70;;;11.00;71.90;;;;;;4841978;29;20522;-79
2021/09/29 07:50:21;;;;;;;2.67;0.70;;;11.00;71.90;;;;;;4854955;29;20029;-80
2021/09/29 07:52:48;;;;;;;3.75;0.75;;;11.10;72.10;;;;;;4855356;29;20049;-80
2021/09/29 07:55:15;;;;;;;5.32;2.00;;;11.10;72.00;;;;;;4856383;29;20597;-80
2021/09/29 07:57:43;;;;;;;1.35;0.77;;;11.20;72.10;;;;;;4854472;29;20101;-80
2021/09/29 08:00:11;;;;;;;1.13;0.70;;;11.20;72.00;;;;;;4853249;29;20073;-79
2021/09/29 08:02:41;;;;;;;2.50;0.85;;;11.20;71.90;;;;;;4854171;29;20094;-79
2021/09/29 08:05:08;;;;;;;3.65;0.80;;;11.30;72.00;;;;;;4852930;29;20030;-87
2021/09/29 08:07:34;;;;;;;1.67;0.60;;;11.30;72.00;;;;;;4854330;29;20038;-78
2021/09/29 08:10:00;;;;;;;2.70;0.80;;;11.30;71.90;;;;;;4854557;29;20041;-78
2021/09/29 08:12:26;;;;;;;2.35;0.77;;;11.40;71.90;;;;;;4849163;29;20110;-79
2021/09/29 08:14:52;;;;;;;8.10;0.93;;;11.50;72.00;;;;;;4836588;29;20033;-78
2021/09/29 08:17:19;;;;;;;2.28;0.73;;;11.50;71.90;;;;;;4836161;29;20103;-89
2021/09/29 08:19:45;;;;;;;1.50;0.77;;;11.50;71.90;;;;;;4836553;29;20034;-79
2021/09/29 08:22:12;;;;;;;5.47;1.83;;;11.60;71.90;;;;;;4840043;29;20040;-81
2021/09/29 08:24:58;;;;;;;3.72;0.85;;;11.60;71.90;;;;;;4848591;29;20041;-79
2021/09/29 08:30:26;;;;;;;2.97;0.40;;;11.70;71.80;;;;;;4835590;29;20040;-82
2021/09/29 08:32:51;;;;;;;3.55;0.73;;;11.70;71.80;;;;;;4833837;29;20068;-79
2021/09/29 08:35:33;;;;;;;1.27;0.38;;;11.70;71.70;;;;;;4850416;29;20116;-79
2021/09/29 08:38:15;;;;;;;2.22;0.50;;;11.80;71.80;;;;;;4849119;29;20117;-78
2021/09/29 08:46:09;;;;;;;3.58;1.05;;;11.90;71.70;;;;;;4857473;29;20068;-77
2021/09/29 08:48:49;;;;;;;2.90;0.60;;;11.90;71.60;;;;;;4847957;29;20094;-78
2021/09/29 08:51:33;;;;;;;1.33;0.50;;;11.90;71.60;;;;;;4839169;29;20038;-83
2021/09/29 09:18:27;;;;;;;2.85;0.60;;;12.40;71.70;;;;;;4847569;29;20070;-79
2021/09/29 09:21:02;;;;;;;1.80;0.73;;;12.40;71.60;;;;;;4857498;29;20053;-78
2021/09/29 09:23:40;;;;;;;2.80;0.70;;;12.50;71.70;;;;;;4856109;29;20041;-79
2021/09/29 09:26:16;;;;;;;2.38;0.95;;;12.60;71.70;;;;;;4857496;29;20508;-78
2021/09/29 09:28:44;;;;;;;2.20;0.82;;;12.70;71.60;;;;;;4847321;29;20045;-78
2021/09/29 09:31:21;;;;;;;1.23;0.73;;;12.80;71.60;;;;;;4844871;29;20034;-79
2021/09/29 09:33:50;;;;;;;2.33;0.73;;;12.90;71.70;;;;;;4846269;29;20497;-79
2021/09/29 09:36:28;;;;;;;3.10;1.13;;;13.00;71.70;;;;;;4837165;29;20127;-77
2021/09/29 09:38:54;;;;;;;2.03;0.70;;;13.00;71.50;;;;;;4838059;29;20046;-77
2021/09/29 09:41:23;;;;;;;2.60;1.25;;;13.10;71.50;;;;;;4838053;29;20382;-78
2021/09/29 09:44:01;;;;;;;4.80;1.23;;;13.20;71.70;;;;;;4836454;29;20041;-90
2021/09/29 09:46:28;;;;;;;3.75;0.77;;;13.20;71.90;;;;;;4841172;29;20046;-78
2021/09/29 09:49:05;;;;;;;2.78;1.10;;;13.30;72.00;;;;;;4834525;29;20044;-80
2021/09/29 09:51:44;;;;;;;2.30;0.93;;;13.40;72.20;;;;;;4836344;29;20417;-80
2021/09/29 09:54:11;;;;;;;4.05;0.90;;;13.50;72.20;;;;;;4849919;29;20240;-81
2021/09/29 09:56:41;;;;;;;3.83;0.93;;;13.60;72.20;;;;;;4838412;29;20037;-81
2021/09/29 09:59:10;;;;;;;2.50;0.77;;;13.70;72.20;;;;;;4865572;29;20089;-80
2021/09/29 10:01:37;;;;;;;2.80;0.63;;;13.70;72.00;;;;;;4857802;29;20037;-80
2021/09/29 10:04:11;;;;;;;5.65;1.30;;;13.80;71.90;;;;;;4841854;29;20053;-79
2021/09/29 10:06:38;;;;;;;2.53;0.82;;;13.90;71.90;;;;;;4835894;29;20041;-80
2021/09/29 10:09:13;;;;;;;3.08;0.93;;;14.00;71.90;;;;;;4837388;29;20500;-81
2021/09/29 10:14:38;;;;;;;1.27;0.90;;;14.10;71.70;;;;;;4853556;29;20616;-81
2021/09/29 10:23:08;;;;;;;6.43;1.58;;;14.40;71.40;;;;;;4836264;29;20045;-80
2021/09/29 10:28:24;;;;;;;5.85;1.27;;;14.50;71.60;;;;;;4848462;29;20101;-80
2021/09/29 10:31:10;;;;;;;2.63;0.90;;;14.60;71.60;;;;;;4847885;29;20089;-80
2021/09/29 10:33:41;;;;;;;3.63;1.45;;;14.70;71.60;;;;;;4842159;29;20177;-80
2021/09/29 10:41:26;;;;;;;6.95;0.75;;;14.80;71.20;;;;;;4854565;29;20037;-80
2021/09/29 10:44:07;;;;;;;1.83;0.70;;;14.80;71.00;;;;;;4854522;29;20033;-81
2021/09/29 11:30:05;;;;;;;4.25;1.23;;;15.80;70.40;;;;;;4854010;29;20249;-82
2021/09/29 11:32:38;;;;;;;;;;;15.80;70.20;;;;;;4853183;29;20577;-81
2021/09/29 11:35:40;;;;;;;2.03;0.83;;;15.90;70.40;;;;;;4839877;29;19955;-80
2021/09/29 12:11:27;;;;;;;2.22;0.52;;;17.70;69.40;;;;;;4833989;29;20030;-80
2021/09/29 12:13:59;;;;;;;1.83;0.55;;;17.80;69.20;;;;;;4850856;29;20124;-82
2021/09/29 12:16:34;;;;;;;5.82;1.55;;;17.90;68.90;;;;;;4853542;29;20034;-79
2021/09/29 12:19:09;;;;;;;1.58;0.90;;;17.90;68.50;;;;;;4843019;29;20599;-80
2021/09/29 12:21:42;;;;;;;3.42;0.50;;;18.00;68.50;;;;;;4839148;29;20034;-81
2021/09/29 12:24:14;;;;;;;3.38;1.02;;;18.10;68.30;;;;;;4839247;29;20470;-80
2021/09/29 12:26:53;;;;;;;3.05;1.17;;;18.20;68.30;;;;;;4839571;29;20151;-80
2021/09/29 12:29:25;;;;;;;3.47;0.80;;;18.20;68.10;;;;;;4838163;29;20069;-81
2021/09/29 12:32:00;;;;;;;2.67;0.90;;;18.30;68.00;;;;;;4838663;29;20046;-81
2021/09/29 12:34:30;;;;;;;2.58;0.70;;;18.40;68.00;;;;;;4856347;29;20029;-80
2021/09/29 12:37:07;;;;;;;2.08;0.60;;;18.50;67.90;;;;;;4856721;29;20379;-81
2021/09/29 12:39:33;;;;;;;0.80;0.20;;;18.50;67.40;;;;;;4857316;29;20029;-82
2021/09/29 12:41:59;;;;;;;2.75;0.63;;;18.60;67.60;;;;;;4856772;29;20045;-82
2021/09/29 12:44:25;;;;;;;3.70;1.35;;;18.70;67.40;;;;;;4857150;29;20030;-81
2021/09/29 12:47:14;;;;;;;3.58;0.60;;;18.80;67.40;;;;;;4857235;29;20057;-82
2021/09/29 12:49:40;;;;;;;2.35;0.60;;;18.90;67.20;;;;;;4856626;29;20439;-83
2021/09/29 12:52:12;;;;;;;3.67;0.50;;;19.00;67.20;;;;;;4854139;29;20045;-85
2021/09/29 12:54:43;;;;;;;1.33;0.60;;;19.00;66.90;;;;;;4838127;29;20041;-85
2021/09/29 12:57:09;;;;;;;3.20;0.80;;;19.20;67.10;;;;;;4838826;29;20038;-86
2021/09/29 12:59:35;;;;;;;1.65;0.47;;;19.30;66.90;;;;;;4839188;29;20098;-83
2021/09/29 13:02:01;;;;;;;1.85;0.57;;;19.40;66.70;;;;;;4841399;29;20046;-81
2021/09/29 13:04:27;;;;;;;2.65;1.50;;;19.50;66.40;;;;;;4850191;29;20037;-83
2021/09/29 13:06:53;;;;;;;2.28;0.50;;;19.50;66.60;;;;;;4855448;29;20545;-83
2021/09/29 13:09:19;;;;;;;1.88;0.65;;;19.50;65.80;;;;;;4842654;29;20046;-84
2021/09/29 13:11:45;;;;;;;1.80;0.82;;;19.50;65.70;;;;;;4838878;29;20080;-85
2021/09/29 13:14:11;;;;;;;3.45;0.98;;;19.60;65.80;;;;;;4856452;29;20692;-86
2021/09/29 13:16:37;;;;;;;2.22;0.63;;;19.60;65.60;;;;;;4857220;29;20040;-82
2021/09/29 13:19:15;;;;;;;3.45;0.70;;;19.70;65.60;;;;;;4856808;29;20041;-83
2021/09/29 13:21:53;;;;;;;2.78;0.80;;;19.80;65.60;;;;;;4853742;29;20476;-81
2021/09/29 13:24:39;;;;;;;1.48;0.60;;;20.00;65.70;;;;;;4839476;29;20042;-82
2021/09/29 13:27:35;;;;;;;1.42;0.60;;;20.30;65.80;;;;;;4837268;29;20068;-83
2021/09/29 13:35:29;;;;;;;1.50;0.47;;;20.60;65.20;;;;;;4836878;29;20034;-81
2021/09/29 13:37:55;;;;;;;4.95;0.90;;;20.70;64.90;;;;;;4836576;29;20117;-84
2021/09/29 13:40:21;;;;;;;1.55;0.90;;;20.80;64.80;;;;;;4836298;29;20030;-80
2021/09/29 13:42:48;;;;;;;1.80;0.70;;;20.90;64.60;;;;;;4844800;29;20064;-83
2021/09/29 13:45:13;;;;;;;2.03;0.75;;;21.00;64.50;;;;;;4854556;29;20033;-80
2021/09/29 13:47:39;;;;;;;2.33;0.60;;;21.00;64.10;;;;;;4855181;29;20608;-81
2021/09/29 13:50:06;;;;;;;2.88;1.05;;;21.10;64.00;;;;;;4838217;29;20042;-80
2021/09/29 13:52:33;;;;;;;1.70;0.50;;;21.10;63.70;;;;;;4836092;29;20069;-81
2021/09/29 13:55:03;;;;;;;3.42;0.60;;;21.10;63.40;;;;;;4821041;29;20079;-86
2021/09/29 14:02:57;;;;;;;2.28;0.68;;;21.20;62.80;;;;;;4856138;29;20049;-81
2021/09/29 14:30:00;;;;;;;4.78;0.75;;;20.90;60.10;;;;;;4855577;29;20431;-81
2021/09/29 14:32:32;;;;;;;2.97;0.80;;;20.80;59.70;;;;;;4848081;29;20037;-82
2021/09/29 14:34:58;;;;;;;4.28;0.82;;;20.70;59.30;;;;;;4855342;29;20090;-84
2021/09/29 14:37:24;;;;;;;3.22;0.77;;;20.70;59.00;;;;;;4854986;29;20057;-85
2021/09/29 14:39:50;;;;;;;4.65;1.10;;;20.70;58.70;;;;;;4837966;29;20034;-84
2021/09/29 14:42:16;;;;;;;4.28;0.88;;;20.70;58.60;;;;;;4840068;29;20063;-85
2021/09/29 14:44:43;;;;;;;2.30;0.57;;;20.60;58.10;;;;;;4857769;29;20104;-84
2021/09/29 14:47:12;;;;;;;2.33;0.45;;;20.50;57.80;;;;;;4856850;29;20228;-82
2021/09/29 14:49:43;;;;;;;2.67;0.93;;;20.40;57.40;;;;;;4870553;29;20036;-84
2021/09/29 14:52:11;;;;;;;4.38;0.90;;;20.30;57.00;;;;;;4856974;29;20094;-89
2021/09/29 14:54:37;;;;;;;3.67;0.88;;;20.20;57.00;;;;;;4854122;29;20033;-86
2021/09/29 14:57:10;;;;;;;4.05;0.88;;;20.10;56.90;;;;;;4855452;29;20038;-82
2021/09/29 14:59:37;;;;;;;;;;;20.00;56.90;;;;;;4840097;29;20053;-81
2021/09/29 15:02:03;;;;;;;3.53;1.08;;;19.90;57.20;;;;;;4835672;29;19912;-81
2021/09/29 15:04:29;;;;;;;4.13;1.10;;;19.90;57.00;;;;;;4836989;29;20132;-82
2021/09/29 15:06:55;;;;;;;3.28;0.70;;;19.80;56.50;;;;;;4836641;29;20033;-81
2021/09/29 15:09:21;;;;;;;8.65;1.30;;;19.90;56.50;;;;;;4836190;29;20042;-81
2021/09/29 15:11:47;;;;;;;4.25;2.15;;;19.90;56.30;;;;;;4836091;29;20042;-81
2021/09/29 15:14:17;;;;;;;4.35;1.38;;;19.90;56.00;;;;;;4853475;29;20041;-83
2021/09/29 15:16:53;;;;;;;4.18;1.00;;;19.90;55.80;;;;;;4854722;29;20486;-82
2021/09/29 15:22:20;;;;;;;3.47;1.42;;;19.80;55.40;;;;;;4855460;29;20094;-83
2021/09/29 15:24:56;;;;;;;4.20;1.00;;;19.80;55.30;;;;;;4854408;29;20076;-83
2021/09/29 15:46:34;;;;;;;5.72;1.25;;;19.60;54.30;;;;;;4853588;29;20497;-81
2021/09/29 15:49:23;;;;;;;2.47;0.85;;;19.60;54.30;;;;;;4854247;29;20042;-81
2021/09/29 15:57:26;;;;;;;3.78;1.13;;;19.40;54.00;;;;;;4836001;29;20045;-78
2021/09/29 16:02:25;;;;;;;3.10;1.10;;;19.40;53.80;;;;;;4853937;29;20045;-81
2021/09/29 16:05:20;;;;;;;4.80;1.15;;;19.30;53.70;;;;;;4852714;29;20038;-83
2021/09/29 16:31:28;;;;;;;2.70;0.90;;;19.10;53.60;;;;;;4850351;29;20429;-84